sensor_id;sensor_type;location;lat;lon;timestamp;P1;durP1;ratioP1;P2;durP2;ratioP2
20527;SDS011;23612;50.894;10.700;2022-11-20T00:00:49;38.97;;;16.87;;
20527;SDS011;23612;50.894;10.700;2022-11-20T00:03:14;32.63;;;14.70;;
20527;SDS011;23612;50.894;10.700;2022-11-20T00:05:40;81.77;;;26.67;;
20527;SDS011;23612;50.894;10.700;2022-11-20T00:08:05;35.87;;;15.10;;
20527;SDS011;23612;50.894;10.700;2022-11-20T00:10:31;28.00;;;12.33;;
20527;SDS011;23612;50.894;10.700;2022-11-20T00:13:00;22.23;;;12.20;;
20527;SDS011;23612;50.894;10.700;2022-11-20T00:15:25;25.23;;;10.30;;
20527;SDS011;23612;50.894;10.700;2022-11-20T00:17:51;18.07;;;9.27;;
20527;SDS011;23612;50.894;10.700;2022-11-20T00:20:16;17.40;;;8.73;;
20527;SDS011;23612;50.894;10.700;2022-11-20T00:22:42;16.63;;;8.83;;
20527;SDS011;23612;50.894;10.700;2022-11-20T00:25:08;20.40;;;8.60;;
20527;SDS011;23612;50.894;10.700;2022-11-20T00:27:33;19.77;;;9.20;;
20527;SDS011;23612;50.894;10.700;2022-11-20T00:29:59;22.80;;;10.30;;
20527;SDS011;23612;50.894;10.700;2022-11-20T00:32:24;19.63;;;10.33;;
20527;SDS011;23612;50.894;10.700;2022-11-20T00:34:50;17.73;;;9.07;;
20527;SDS011;23612;50.894;10.700;2022-11-20T00:37:15;15.77;;;8.50;;
20527;SDS011;23612;50.894;10.700;2022-11-20T00:39:41;18.33;;;9.27;;
20527;SDS011;23612;50.894;10.700;2022-11-20T00:42:06;16.53;;;7.93;;
20527;SDS011;23612;50.894;10.700;2022-11-20T00:44:32;16.57;;;8.70;;
20527;SDS011;23612;50.894;10.700;2022-11-20T00:46:57;21.17;;;9.87;;
20527;SDS011;23612;50.894;10.700;2022-11-20T00:49:23;21.27;;;9.97;;
20527;SDS011;23612;50.894;10.700;2022-11-20T00:51:48;20.07;;;9.63;;
20527;SDS011;23612;50.894;10.700;2022-11-20T00:54:14;20.97;;;8.87;;
20527;SDS011;23612;50.894;10.700;2022-11-20T00:56:39;18.07;;;9.53;;
20527;SDS011;23612;50.894;10.700;2022-11-20T00:59:05;19.70;;;9.10;;
20527;SDS011;23612;50.894;10.700;2022-11-20T01:01:30;18.87;;;9.43;;
20527;SDS011;23612;50.894;10.700;2022-11-20T01:03:57;18.30;;;8.87;;
20527;SDS011;23612;50.894;10.700;2022-11-20T01:08:58;16.03;;;8.27;;
20527;SDS011;23612;50.894;10.700;2022-11-20T01:11:26;18.60;;;8.60;;
20527;SDS011;23612;50.894;10.700;2022-11-20T01:13:57;16.77;;;8.40;;
20527;SDS011;23612;50.894;10.700;2022-11-20T01:18:51;17.00;;;8.30;;
20527;SDS011;23612;50.894;10.700;2022-11-20T01:21:20;22.40;;;9.97;;
20527;SDS011;23612;50.894;10.700;2022-11-20T01:24:06;21.77;;;10.03;;
20527;SDS011;23612;50.894;10.700;2022-11-20T01:26:33;20.63;;;9.27;;
20527;SDS011;23612;50.894;10.700;2022-11-20T01:29:00;17.77;;;8.90;;
20527;SDS011;23612;50.894;10.700;2022-11-20T01:31:28;16.93;;;8.50;;
20527;SDS011;23612;50.894;10.700;2022-11-20T01:33:56;19.10;;;9.30;;
20527;SDS011;23612;50.894;10.700;2022-11-20T01:36:23;16.73;;;8.70;;
20527;SDS011;23612;50.894;10.700;2022-11-20T01:38:51;18.33;;;9.60;;
20527;SDS011;23612;50.894;10.700;2022-11-20T01:41:18;21.80;;;9.37;;
20527;SDS011;23612;50.894;10.700;2022-11-20T01:44:03;16.57;;;8.77;;
20527;SDS011;23612;50.894;10.700;2022-11-20T01:46:30;26.70;;;11.63;;
20527;SDS011;23612;50.894;10.700;2022-11-20T01:51:50;29.10;;;13.67;;
20527;SDS011;23612;50.894;10.700;2022-11-20T01:54:25;19.87;;;9.93;;
20527;SDS011;23612;50.894;10.700;2022-11-20T01:56:55;18.37;;;9.60;;
20527;SDS011;23612;50.894;10.700;2022-11-20T01:59:24;15.97;;;8.60;;
20527;SDS011;23612;50.894;10.700;2022-11-20T02:01:51;15.63;;;8.20;;
20527;SDS011;23612;50.894;10.700;2022-11-20T02:04:17;17.40;;;8.63;;
20527;SDS011;23612;50.894;10.700;2022-11-20T02:06:45;19.60;;;9.13;;
20527;SDS011;23612;50.894;10.700;2022-11-20T02:09:15;15.43;;;7.90;;
20527;SDS011;23612;50.894;10.700;2022-11-20T02:11:41;18.57;;;8.77;;
20527;SDS011;23612;50.894;10.700;2022-11-20T02:14:07;17.17;;;9.00;;
20527;SDS011;23612;50.894;10.700;2022-11-20T02:16:34;16.53;;;8.50;;
20527;SDS011;23612;50.894;10.700;2022-11-20T02:19:30;17.03;;;8.20;;
20527;SDS011;23612;50.894;10.700;2022-11-20T02:22:05;14.53;;;7.20;;
20527;SDS011;23612;50.894;10.700;2022-11-20T02:24:36;15.23;;;7.60;;
20527;SDS011;23612;50.894;10.700;2022-11-20T02:27:03;12.70;;;6.87;;
20527;SDS011;23612;50.894;10.700;2022-11-20T02:29:34;12.10;;;6.93;;
20527;SDS011;23612;50.894;10.700;2022-11-20T02:32:04;12.70;;;7.07;;
20527;SDS011;23612;50.894;10.700;2022-11-20T02:34:30;19.47;;;7.10;;
20527;SDS011;23612;50.894;10.700;2022-11-20T02:36:55;16.73;;;7.23;;
20527;SDS011;23612;50.894;10.700;2022-11-20T02:39:22;15.87;;;7.17;;
20527;SDS011;23612;50.894;10.700;2022-11-20T02:41:52;16.37;;;7.73;;
20527;SDS011;23612;50.894;10.700;2022-11-20T02:44:19;13.87;;;6.97;;
20527;SDS011;23612;50.894;10.700;2022-11-20T02:46:44;16.47;;;8.20;;
20527;SDS011;23612;50.894;10.700;2022-11-20T02:49:10;20.70;;;8.47;;
20527;SDS011;23612;50.894;10.700;2022-11-20T02:51:36;19.43;;;8.70;;
20527;SDS011;23612;50.894;10.700;2022-11-20T02:54:01;15.47;;;7.40;;
20527;SDS011;23612;50.894;10.700;2022-11-20T02:56:27;19.80;;;7.40;;
20527;SDS011;23612;50.894;10.700;2022-11-20T02:58:53;14.83;;;6.20;;
20527;SDS011;23612;50.894;10.700;2022-11-20T03:01:19;13.53;;;6.40;;
20527;SDS011;23612;50.894;10.700;2022-11-20T03:03:44;10.40;;;5.60;;
20527;SDS011;23612;50.894;10.700;2022-11-20T03:06:10;14.03;;;6.13;;
20527;SDS011;23612;50.894;10.700;2022-11-20T03:08:35;13.93;;;6.37;;
20527;SDS011;23612;50.894;10.700;2022-11-20T03:11:02;13.77;;;6.40;;
20527;SDS011;23612;50.894;10.700;2022-11-20T03:13:28;11.10;;;6.17;;
20527;SDS011;23612;50.894;10.700;2022-11-20T03:15:54;11.27;;;5.80;;
20527;SDS011;23612;50.894;10.700;2022-11-20T03:18:19;14.33;;;6.53;;
20527;SDS011;23612;50.894;10.700;2022-11-20T03:20:45;12.87;;;6.37;;
20527;SDS011;23612;50.894;10.700;2022-11-20T03:23:10;14.93;;;6.67;;
20527;SDS011;23612;50.894;10.700;2022-11-20T03:25:36;11.90;;;6.07;;
20527;SDS011;23612;50.894;10.700;2022-11-20T03:28:02;14.07;;;6.37;;
20527;SDS011;23612;50.894;10.700;2022-11-20T03:30:27;9.57;;;5.80;;
20527;SDS011;23612;50.894;10.700;2022-11-20T03:32:53;13.00;;;6.47;;
20527;SDS011;23612;50.894;10.700;2022-11-20T03:35:19;12.97;;;6.07;;
20527;SDS011;23612;50.894;10.700;2022-11-20T03:37:44;10.07;;;5.80;;
20527;SDS011;23612;50.894;10.700;2022-11-20T03:40:10;12.37;;;6.63;;
20527;SDS011;23612;50.894;10.700;2022-11-20T03:42:36;14.30;;;6.60;;
20527;SDS011;23612;50.894;10.700;2022-11-20T03:45:12;13.33;;;7.07;;
20527;SDS011;23612;50.894;10.700;2022-11-20T03:47:42;11.77;;;5.90;;
20527;SDS011;23612;50.894;10.700;2022-11-20T03:50:08;13.23;;;6.23;;
20527;SDS011;23612;50.894;10.700;2022-11-20T03:52:36;13.70;;;6.40;;
20527;SDS011;23612;50.894;10.700;2022-11-20T03:55:01;13.63;;;6.20;;
20527;SDS011;23612;50.894;10.700;2022-11-20T03:57:27;12.53;;;5.97;;
20527;SDS011;23612;50.894;10.700;2022-11-20T03:59:53;12.50;;;6.50;;
20527;SDS011;23612;50.894;10.700;2022-11-20T04:02:18;11.37;;;6.40;;
20527;SDS011;23612;50.894;10.700;2022-11-20T04:04:44;9.50;;;6.00;;
20527;SDS011;23612;50.894;10.700;2022-11-20T04:07:09;12.87;;;6.53;;
20527;SDS011;23612;50.894;10.700;2022-11-20T04:09:35;12.30;;;6.30;;
20527;SDS011;23612;50.894;10.700;2022-11-20T04:12:00;11.00;;;6.20;;
20527;SDS011;23612;50.894;10.700;2022-11-20T04:14:25;16.37;;;6.00;;
20527;SDS011;23612;50.894;10.700;2022-11-20T04:16:51;12.80;;;7.00;;
20527;SDS011;23612;50.894;10.700;2022-11-20T04:19:16;13.27;;;7.03;;
20527;SDS011;23612;50.894;10.700;2022-11-20T04:21:43;14.00;;;7.00;;
20527;SDS011;23612;50.894;10.700;2022-11-20T04:24:09;14.10;;;6.20;;
20527;SDS011;23612;50.894;10.700;2022-11-20T04:26:35;12.37;;;6.30;;
20527;SDS011;23612;50.894;10.700;2022-11-20T04:29:01;12.70;;;6.83;;
20527;SDS011;23612;50.894;10.700;2022-11-20T04:31:28;12.80;;;7.43;;
20527;SDS011;23612;50.894;10.700;2022-11-20T04:33:55;15.07;;;6.57;;
20527;SDS011;23612;50.894;10.700;2022-11-20T04:36:24;15.60;;;7.60;;
20527;SDS011;23612;50.894;10.700;2022-11-20T04:38:58;16.00;;;8.20;;
20527;SDS011;23612;50.894;10.700;2022-11-20T04:41:29;16.50;;;6.97;;
20527;SDS011;23612;50.894;10.700;2022-11-20T04:43:58;16.10;;;6.80;;
20527;SDS011;23612;50.894;10.700;2022-11-20T04:46:28;17.70;;;8.13;;
20527;SDS011;23612;50.894;10.700;2022-11-20T04:49:01;14.67;;;7.87;;
20527;SDS011;23612;50.894;10.700;2022-11-20T04:51:27;16.37;;;8.07;;
20527;SDS011;23612;50.894;10.700;2022-11-20T04:53:53;19.63;;;10.20;;
20527;SDS011;23612;50.894;10.700;2022-11-20T04:56:19;19.83;;;9.93;;
20527;SDS011;23612;50.894;10.700;2022-11-20T04:58:44;20.87;;;9.97;;
20527;SDS011;23612;50.894;10.700;2022-11-20T05:03:37;22.77;;;10.10;;
20527;SDS011;23612;50.894;10.700;2022-11-20T05:06:04;24.33;;;11.87;;
20527;SDS011;23612;50.894;10.700;2022-11-20T05:08:31;19.87;;;10.40;;
20527;SDS011;23612;50.894;10.700;2022-11-20T05:11:01;22.77;;;10.67;;
20527;SDS011;23612;50.894;10.700;2022-11-20T05:13:28;24.83;;;11.77;;
20527;SDS011;23612;50.894;10.700;2022-11-20T05:15:53;28.43;;;12.33;;
20527;SDS011;23612;50.894;10.700;2022-11-20T05:18:19;26.97;;;13.33;;
20527;SDS011;23612;50.894;10.700;2022-11-20T05:20:44;27.53;;;12.57;;
20527;SDS011;23612;50.894;10.700;2022-11-20T05:23:10;25.80;;;12.57;;
20527;SDS011;23612;50.894;10.700;2022-11-20T05:25:35;23.50;;;11.33;;
20527;SDS011;23612;50.894;10.700;2022-11-20T05:28:01;25.93;;;11.70;;
20527;SDS011;23612;50.894;10.700;2022-11-20T05:30:26;24.20;;;11.57;;
20527;SDS011;23612;50.894;10.700;2022-11-20T05:32:52;26.00;;;12.20;;
20527;SDS011;23612;50.894;10.700;2022-11-20T05:35:17;24.10;;;12.70;;
20527;SDS011;23612;50.894;10.700;2022-11-20T05:37:43;27.03;;;12.77;;
20527;SDS011;23612;50.894;10.700;2022-11-20T05:40:09;25.83;;;13.13;;
20527;SDS011;23612;50.894;10.700;2022-11-20T05:42:35;27.70;;;13.00;;
20527;SDS011;23612;50.894;10.700;2022-11-20T05:45:01;46.90;;;19.90;;
20527;SDS011;23612;50.894;10.700;2022-11-20T05:47:31;135.33;;;47.57;;
20527;SDS011;23612;50.894;10.700;2022-11-20T05:49:58;33.67;;;16.50;;
20527;SDS011;23612;50.894;10.700;2022-11-20T05:52:24;31.67;;;16.30;;
20527;SDS011;23612;50.894;10.700;2022-11-20T05:54:49;33.70;;;16.30;;
20527;SDS011;23612;50.894;10.700;2022-11-20T05:57:15;49.07;;;19.53;;
20527;SDS011;23612;50.894;10.700;2022-11-20T05:59:41;57.40;;;23.50;;
20527;SDS011;23612;50.894;10.700;2022-11-20T06:02:06;33.50;;;16.00;;
20527;SDS011;23612;50.894;10.700;2022-11-20T06:04:32;34.27;;;16.00;;
20527;SDS011;23612;50.894;10.700;2022-11-20T06:06:58;53.97;;;23.00;;
20527;SDS011;23612;50.894;10.700;2022-11-20T06:09:23;99.80;;;37.87;;
20527;SDS011;23612;50.894;10.700;2022-11-20T06:11:48;62.43;;;30.70;;
20527;SDS011;23612;50.894;10.700;2022-11-20T06:14:14;50.20;;;24.67;;
20527;SDS011;23612;50.894;10.700;2022-11-20T06:16:39;34.23;;;16.60;;
20527;SDS011;23612;50.894;10.700;2022-11-20T06:19:05;34.70;;;16.00;;
20527;SDS011;23612;50.894;10.700;2022-11-20T06:21:30;27.80;;;14.20;;
20527;SDS011;23612;50.894;10.700;2022-11-20T06:23:56;23.60;;;12.13;;
20527;SDS011;23612;50.894;10.700;2022-11-20T06:26:23;21.20;;;10.33;;
20527;SDS011;23612;50.894;10.700;2022-11-20T06:28:50;17.77;;;9.67;;
20527;SDS011;23612;50.894;10.700;2022-11-20T06:31:17;19.10;;;10.07;;
20527;SDS011;23612;50.894;10.700;2022-11-20T06:33:44;15.73;;;8.13;;
20527;SDS011;23612;50.894;10.700;2022-11-20T06:36:11;15.83;;;7.83;;
20527;SDS011;23612;50.894;10.700;2022-11-20T06:38:38;18.40;;;8.77;;
20527;SDS011;23612;50.894;10.700;2022-11-20T06:41:05;17.90;;;8.87;;
20527;SDS011;23612;50.894;10.700;2022-11-20T06:43:31;13.30;;;7.87;;
20527;SDS011;23612;50.894;10.700;2022-11-20T06:45:57;13.07;;;7.27;;
20527;SDS011;23612;50.894;10.700;2022-11-20T06:48:24;12.40;;;7.27;;
20527;SDS011;23612;50.894;10.700;2022-11-20T06:50:51;10.27;;;5.80;;
20527;SDS011;23612;50.894;10.700;2022-11-20T06:53:17;14.50;;;6.30;;
20527;SDS011;23612;50.894;10.700;2022-11-20T06:55:46;14.23;;;6.50;;
20527;SDS011;23612;50.894;10.700;2022-11-20T06:58:12;13.90;;;5.83;;
20527;SDS011;23612;50.894;10.700;2022-11-20T07:00:39;11.50;;;6.53;;
20527;SDS011;23612;50.894;10.700;2022-11-20T07:03:05;11.07;;;5.80;;
20527;SDS011;23612;50.894;10.700;2022-11-20T07:05:32;10.63;;;6.60;;
20527;SDS011;23612;50.894;10.700;2022-11-20T07:07:58;12.97;;;7.60;;
20527;SDS011;23612;50.894;10.700;2022-11-20T07:10:24;15.90;;;7.70;;
20527;SDS011;23612;50.894;10.700;2022-11-20T07:12:51;15.10;;;8.03;;
20527;SDS011;23612;50.894;10.700;2022-11-20T07:15:17;18.83;;;11.00;;
20527;SDS011;23612;50.894;10.700;2022-11-20T07:17:43;23.43;;;13.90;;
20527;SDS011;23612;50.894;10.700;2022-11-20T07:20:09;36.23;;;18.23;;
20527;SDS011;23612;50.894;10.700;2022-11-20T07:22:34;32.13;;;18.00;;
20527;SDS011;23612;50.894;10.700;2022-11-20T07:25:00;32.33;;;17.43;;
20527;SDS011;23612;50.894;10.700;2022-11-20T07:27:26;29.10;;;15.73;;
20527;SDS011;23612;50.894;10.700;2022-11-20T07:29:52;27.50;;;14.77;;
20527;SDS011;23612;50.894;10.700;2022-11-20T07:32:18;26.00;;;14.43;;
20527;SDS011;23612;50.894;10.700;2022-11-20T07:34:44;111.60;;;52.60;;
20527;SDS011;23612;50.894;10.700;2022-11-20T07:37:09;35.03;;;18.53;;
20527;SDS011;23612;50.894;10.700;2022-11-20T07:39:35;40.27;;;23.50;;
20527;SDS011;23612;50.894;10.700;2022-11-20T07:42:00;26.50;;;14.93;;
20527;SDS011;23612;50.894;10.700;2022-11-20T07:44:26;22.90;;;12.60;;
20527;SDS011;23612;50.894;10.700;2022-11-20T07:46:51;18.40;;;10.80;;
20527;SDS011;23612;50.894;10.700;2022-11-20T07:49:17;20.37;;;10.47;;
20527;SDS011;23612;50.894;10.700;2022-11-20T07:51:42;21.70;;;10.73;;
20527;SDS011;23612;50.894;10.700;2022-11-20T07:54:08;21.27;;;10.20;;
20527;SDS011;23612;50.894;10.700;2022-11-20T07:56:34;17.60;;;10.60;;
20527;SDS011;23612;50.894;10.700;2022-11-20T07:58:59;28.13;;;11.57;;
20527;SDS011;23612;50.894;10.700;2022-11-20T08:01:25;19.90;;;10.80;;
20527;SDS011;23612;50.894;10.700;2022-11-20T08:03:50;25.23;;;12.03;;
20527;SDS011;23612;50.894;10.700;2022-11-20T08:06:16;22.57;;;12.33;;
20527;SDS011;23612;50.894;10.700;2022-11-20T08:08:43;25.17;;;12.73;;
20527;SDS011;23612;50.894;10.700;2022-11-20T08:11:09;25.10;;;13.30;;
20527;SDS011;23612;50.894;10.700;2022-11-20T08:13:53;25.40;;;14.63;;
20527;SDS011;23612;50.894;10.700;2022-11-20T08:16:37;24.47;;;13.50;;
20527;SDS011;23612;50.894;10.700;2022-11-20T08:19:10;26.20;;;14.60;;
20527;SDS011;23612;50.894;10.700;2022-11-20T08:21:36;32.70;;;19.80;;
20527;SDS011;23612;50.894;10.700;2022-11-20T08:24:02;30.20;;;17.70;;
20527;SDS011;23612;50.894;10.700;2022-11-20T08:26:28;30.03;;;15.33;;
20527;SDS011;23612;50.894;10.700;2022-11-20T08:28:54;27.63;;;14.60;;
20527;SDS011;23612;50.894;10.700;2022-11-20T08:31:20;25.40;;;14.60;;
20527;SDS011;23612;50.894;10.700;2022-11-20T08:33:46;27.17;;;15.40;;
20527;SDS011;23612;50.894;10.700;2022-11-20T08:36:12;26.90;;;14.50;;
20527;SDS011;23612;50.894;10.700;2022-11-20T08:38:38;30.20;;;17.73;;
20527;SDS011;23612;50.894;10.700;2022-11-20T08:41:04;28.37;;;18.23;;
20527;SDS011;23612;50.894;10.700;2022-11-20T08:43:52;25.13;;;13.40;;
20527;SDS011;23612;50.894;10.700;2022-11-20T08:46:19;21.43;;;12.70;;
20527;SDS011;23612;50.894;10.700;2022-11-20T08:48:45;23.43;;;12.23;;
20527;SDS011;23612;50.894;10.700;2022-11-20T08:51:11;26.67;;;13.93;;
20527;SDS011;23612;50.894;10.700;2022-11-20T08:53:37;28.03;;;15.43;;
20527;SDS011;23612;50.894;10.700;2022-11-20T08:56:03;45.07;;;25.23;;
20527;SDS011;23612;50.894;10.700;2022-11-20T08:58:29;44.30;;;25.80;;
20527;SDS011;23612;50.894;10.700;2022-11-20T09:00:55;79.30;;;38.80;;
20527;SDS011;23612;50.894;10.700;2022-11-20T09:03:21;107.60;;;51.13;;
20527;SDS011;23612;50.894;10.700;2022-11-20T09:05:46;47.73;;;25.00;;
20527;SDS011;23612;50.894;10.700;2022-11-20T09:08:12;33.53;;;19.33;;
20527;SDS011;23612;50.894;10.700;2022-11-20T09:10:38;33.10;;;19.30;;
20527;SDS011;23612;50.894;10.700;2022-11-20T09:13:06;23.30;;;13.53;;
20527;SDS011;23612;50.894;10.700;2022-11-20T09:15:32;28.43;;;17.67;;
20527;SDS011;23612;50.894;10.700;2022-11-20T09:17:59;26.70;;;15.37;;
20527;SDS011;23612;50.894;10.700;2022-11-20T09:20:27;25.73;;;14.93;;
20527;SDS011;23612;50.894;10.700;2022-11-20T09:22:54;26.67;;;15.20;;
20527;SDS011;23612;50.894;10.700;2022-11-20T09:25:20;25.90;;;14.67;;
20527;SDS011;23612;50.894;10.700;2022-11-20T09:27:46;26.40;;;14.00;;
20527;SDS011;23612;50.894;10.700;2022-11-20T09:30:12;21.63;;;12.80;;
20527;SDS011;23612;50.894;10.700;2022-11-20T09:32:39;24.80;;;14.87;;
20527;SDS011;23612;50.894;10.700;2022-11-20T09:35:04;24.03;;;13.53;;
20527;SDS011;23612;50.894;10.700;2022-11-20T09:37:30;24.27;;;13.17;;
20527;SDS011;23612;50.894;10.700;2022-11-20T09:39:56;24.27;;;13.13;;
20527;SDS011;23612;50.894;10.700;2022-11-20T09:55:32;40.20;;;22.30;;
20527;SDS011;23612;50.894;10.700;2022-11-20T09:58:00;33.37;;;18.53;;
20527;SDS011;23612;50.894;10.700;2022-11-20T10:00:26;42.43;;;24.50;;
20527;SDS011;23612;50.894;10.700;2022-11-20T10:03:11;36.00;;;21.40;;
20527;SDS011;23612;50.894;10.700;2022-11-20T10:05:45;33.80;;;19.60;;
20527;SDS011;23612;50.894;10.700;2022-11-20T10:10:46;29.90;;;15.47;;
20527;SDS011;23612;50.894;10.700;2022-11-20T10:16:08;35.70;;;20.17;;
20527;SDS011;23612;50.894;10.700;2022-11-20T10:27:41;54.87;;;27.37;;
20527;SDS011;23612;50.894;10.700;2022-11-20T10:30:28;38.10;;;20.67;;
20527;SDS011;23612;50.894;10.700;2022-11-20T10:32:58;31.80;;;18.53;;
20527;SDS011;23612;50.894;10.700;2022-11-20T10:35:34;35.40;;;19.97;;
20527;SDS011;23612;50.894;10.700;2022-11-20T10:38:09;53.17;;;30.80;;
20527;SDS011;23612;50.894;10.700;2022-11-20T10:40:44;40.80;;;23.47;;
20527;SDS011;23612;50.894;10.700;2022-11-20T10:43:18;41.53;;;24.13;;
20527;SDS011;23612;50.894;10.700;2022-11-20T10:48:27;29.03;;;15.23;;
20527;SDS011;23612;50.894;10.700;2022-11-20T10:53:40;30.57;;;17.47;;
20527;SDS011;23612;50.894;10.700;2022-11-20T10:56:20;44.00;;;27.57;;
20527;SDS011;23612;50.894;10.700;2022-11-20T11:01:39;32.53;;;17.27;;
20527;SDS011;23612;50.894;10.700;2022-11-20T11:04:28;32.83;;;16.87;;
20527;SDS011;23612;50.894;10.700;2022-11-20T11:07:12;29.07;;;15.83;;
20527;SDS011;23612;50.894;10.700;2022-11-20T11:09:49;25.50;;;14.43;;
20527;SDS011;23612;50.894;10.700;2022-11-20T11:12:17;137.93;;;38.87;;
20527;SDS011;23612;50.894;10.700;2022-11-20T11:14:46;128.57;;;39.10;;
20527;SDS011;23612;50.894;10.700;2022-11-20T11:17:30;168.77;;;50.97;;
20527;SDS011;23612;50.894;10.700;2022-11-20T11:20:39;130.53;;;55.67;;
20527;SDS011;23612;50.894;10.700;2022-11-20T11:25:18;51.63;;;26.73;;
20527;SDS011;23612;50.894;10.700;2022-11-20T11:27:50;45.80;;;23.47;;
20527;SDS011;23612;50.894;10.700;2022-11-20T11:30:18;52.30;;;24.50;;
20527;SDS011;23612;50.894;10.700;2022-11-20T11:32:45;47.57;;;23.90;;
20527;SDS011;23612;50.894;10.700;2022-11-20T11:37:40;54.13;;;24.67;;
20527;SDS011;23612;50.894;10.700;2022-11-20T11:40:05;58.23;;;26.30;;
20527;SDS011;23612;50.894;10.700;2022-11-20T11:42:34;54.87;;;23.73;;
20527;SDS011;23612;50.894;10.700;2022-11-20T11:45:05;57.00;;;24.17;;
20527;SDS011;23612;50.894;10.700;2022-11-20T11:47:43;67.03;;;30.90;;
20527;SDS011;23612;50.894;10.700;2022-11-20T11:50:23;65.63;;;29.57;;
20527;SDS011;23612;50.894;10.700;2022-11-20T12:01:06;61.33;;;25.17;;
20527;SDS011;23612;50.894;10.700;2022-11-20T12:03:55;63.20;;;25.97;;
20527;SDS011;23612;50.894;10.700;2022-11-20T12:06:44;60.33;;;26.30;;
20527;SDS011;23612;50.894;10.700;2022-11-20T12:09:13;56.37;;;26.03;;
20527;SDS011;23612;50.894;10.700;2022-11-20T12:12:03;61.97;;;24.67;;
20527;SDS011;23612;50.894;10.700;2022-11-20T12:14:33;59.73;;;26.10;;
20527;SDS011;23612;50.894;10.700;2022-11-20T12:17:01;66.97;;;29.57;;
20527;SDS011;23612;50.894;10.700;2022-11-20T12:19:31;91.33;;;38.90;;
20527;SDS011;23612;50.894;10.700;2022-11-20T12:22:03;190.07;;;76.57;;
20527;SDS011;23612;50.894;10.700;2022-11-20T12:30:18;59.70;;;26.43;;
20527;SDS011;23612;50.894;10.700;2022-11-20T12:36:05;55.40;;;25.10;;
20527;SDS011;23612;50.894;10.700;2022-11-20T12:49:56;101.87;;;35.90;;
20527;SDS011;23612;50.894;10.700;2022-11-20T12:57:57;67.20;;;29.77;;
20527;SDS011;23612;50.894;10.700;2022-11-20T13:00:47;62.70;;;27.20;;
20527;SDS011;23612;50.894;10.700;2022-11-20T13:04:07;64.07;;;26.53;;
20527;SDS011;23612;50.894;10.700;2022-11-20T13:06:58;68.50;;;28.90;;
20527;SDS011;23612;50.894;10.700;2022-11-20T13:09:25;68.60;;;28.77;;
20527;SDS011;23612;50.894;10.700;2022-11-20T13:12:13;68.27;;;27.67;;
20527;SDS011;23612;50.894;10.700;2022-11-20T13:17:55;71.50;;;29.63;;
20527;SDS011;23612;50.894;10.700;2022-11-20T13:20:24;70.37;;;32.13;;
20527;SDS011;23612;50.894;10.700;2022-11-20T13:22:54;71.00;;;32.67;;
20527;SDS011;23612;50.894;10.700;2022-11-20T13:25:26;64.33;;;28.57;;
20527;SDS011;23612;50.894;10.700;2022-11-20T13:28:00;63.53;;;28.23;;
20527;SDS011;23612;50.894;10.700;2022-11-20T13:30:29;72.40;;;30.13;;
20527;SDS011;23612;50.894;10.700;2022-11-20T13:35:41;73.03;;;32.67;;
20527;SDS011;23612;50.894;10.700;2022-11-20T13:38:09;63.97;;;29.43;;
20527;SDS011;23612;50.894;10.700;2022-11-20T13:40:37;66.27;;;29.87;;
20527;SDS011;23612;50.894;10.700;2022-11-20T13:43:19;61.00;;;26.83;;
20527;SDS011;23612;50.894;10.700;2022-11-20T13:46:05;64.07;;;31.23;;
20527;SDS011;23612;50.894;10.700;2022-11-20T13:48:39;60.27;;;26.00;;
20527;SDS011;23612;50.894;10.700;2022-11-20T14:02:01;60.83;;;31.23;;
20527;SDS011;23612;50.894;10.700;2022-11-20T14:04:28;62.23;;;30.23;;
20527;SDS011;23612;50.894;10.700;2022-11-20T14:06:57;53.03;;;25.30;;
20527;SDS011;23612;50.894;10.700;2022-11-20T14:09:31;47.07;;;23.40;;
20527;SDS011;23612;50.894;10.700;2022-11-20T14:11:58;58.57;;;29.37;;
20527;SDS011;23612;50.894;10.700;2022-11-20T14:14:25;50.17;;;24.73;;
20527;SDS011;23612;50.894;10.700;2022-11-20T14:16:53;46.83;;;21.47;;
20527;SDS011;23612;50.894;10.700;2022-11-20T14:19:30;44.80;;;19.60;;
20527;SDS011;23612;50.894;10.700;2022-11-20T14:24:44;42.73;;;20.53;;
20527;SDS011;23612;50.894;10.700;2022-11-20T14:27:18;46.20;;;20.77;;
20527;SDS011;23612;50.894;10.700;2022-11-20T14:29:45;35.47;;;17.23;;
20527;SDS011;23612;50.894;10.700;2022-11-20T14:32:16;42.87;;;18.73;;
20527;SDS011;23612;50.894;10.700;2022-11-20T14:34:44;37.30;;;17.30;;
20527;SDS011;23612;50.894;10.700;2022-11-20T14:37:12;31.47;;;16.70;;
20527;SDS011;23612;50.894;10.700;2022-11-20T14:39:48;32.67;;;16.67;;
20527;SDS011;23612;50.894;10.700;2022-11-20T14:42:18;39.07;;;19.13;;
20527;SDS011;23612;50.894;10.700;2022-11-20T14:44:45;37.77;;;16.73;;
20527;SDS011;23612;50.894;10.700;2022-11-20T14:47:15;35.17;;;17.37;;
20527;SDS011;23612;50.894;10.700;2022-11-20T14:49:44;36.00;;;16.60;;
20527;SDS011;23612;50.894;10.700;2022-11-20T14:52:14;36.23;;;18.10;;
20527;SDS011;23612;50.894;10.700;2022-11-20T14:54:43;38.03;;;19.17;;
20527;SDS011;23612;50.894;10.700;2022-11-20T14:57:29;55.50;;;28.60;;
20527;SDS011;23612;50.894;10.700;2022-11-20T15:00:07;62.90;;;32.17;;
20527;SDS011;23612;50.894;10.700;2022-11-20T15:02:40;60.70;;;31.77;;
20527;SDS011;23612;50.894;10.700;2022-11-20T15:05:07;41.40;;;23.03;;
20527;SDS011;23612;50.894;10.700;2022-11-20T15:07:34;34.07;;;18.53;;
20527;SDS011;23612;50.894;10.700;2022-11-20T15:10:05;34.17;;;18.83;;
20527;SDS011;23612;50.894;10.700;2022-11-20T15:12:40;48.93;;;27.40;;
20527;SDS011;23612;50.894;10.700;2022-11-20T15:15:12;40.20;;;20.97;;
20527;SDS011;23612;50.894;10.700;2022-11-20T15:17:42;60.87;;;30.60;;
20527;SDS011;23612;50.894;10.700;2022-11-20T15:20:14;48.87;;;24.07;;
20527;SDS011;23612;50.894;10.700;2022-11-20T15:22:42;52.80;;;25.53;;
20527;SDS011;23612;50.894;10.700;2022-11-20T15:25:14;51.30;;;26.57;;
20527;SDS011;23612;50.894;10.700;2022-11-20T15:27:41;48.07;;;25.17;;
20527;SDS011;23612;50.894;10.700;2022-11-20T15:30:18;120.47;;;45.60;;
20527;SDS011;23612;50.894;10.700;2022-11-20T15:32:45;217.47;;;89.47;;
20527;SDS011;23612;50.894;10.700;2022-11-20T15:35:11;41.60;;;21.60;;
20527;SDS011;23612;50.894;10.700;2022-11-20T15:37:38;89.37;;;39.30;;
20527;SDS011;23612;50.894;10.700;2022-11-20T15:40:04;58.67;;;31.53;;
20527;SDS011;23612;50.894;10.700;2022-11-20T15:42:31;69.07;;;40.30;;
20527;SDS011;23612;50.894;10.700;2022-11-20T15:44:57;47.17;;;25.63;;
20527;SDS011;23612;50.894;10.700;2022-11-20T15:47:25;51.43;;;27.47;;
20527;SDS011;23612;50.894;10.700;2022-11-20T15:49:58;62.90;;;29.47;;
20527;SDS011;23612;50.894;10.700;2022-11-20T15:52:23;136.07;;;38.50;;
20527;SDS011;23612;50.894;10.700;2022-11-20T15:54:50;67.03;;;25.03;;
20527;SDS011;23612;50.894;10.700;2022-11-20T15:57:15;80.30;;;29.37;;
20527;SDS011;23612;50.894;10.700;2022-11-20T15:59:41;82.83;;;29.97;;
20527;SDS011;23612;50.894;10.700;2022-11-20T16:02:13;160.63;;;50.97;;
20527;SDS011;23612;50.894;10.700;2022-11-20T16:04:40;80.70;;;36.47;;
20527;SDS011;23612;50.894;10.700;2022-11-20T16:07:06;82.07;;;44.17;;